Time;durP1;ratioP1;P1;durP2;ratioP2;P2;SDS_P1;SDS_P2;PMS_P1;PMS_P2;Temp;Humidity;BMP_temperature;BMP_pressure;BME280_temperature;BME280_humidity;BME280_pressure;Samples;Min_cycle;Max_cycle;Signal;HPM_P1;HPM_P2
2023/08/28 00:02:16;;;;;;;0.20;0.20;;;;;;;24.64;53.36;100578.69;4936121;29;20035;-91
2023/08/28 00:04:41;;;;;;;0.10;0.10;;;;;;;24.65;53.71;100590.91;4951950;29;20384;-89
2023/08/28 00:07:07;;;;;;;0.20;0.20;;;;;;;24.67;53.61;100588.91;4952005;29;20030;-89
2023/08/28 00:09:34;;;;;;;0.10;0.10;;;;;;;24.48;53.39;100576.91;4951662;29;20035;-90
2023/08/28 00:12:00;;;;;;;0.10;0.10;;;;;;;24.57;53.70;100597.03;4951831;29;20027;-89
2023/08/28 00:14:26;;;;;;;0.10;0.10;;;;;;;24.58;53.32;100592.56;4951939;29;20059;-89
2023/08/28 00:16:51;;;;;;;0.10;0.10;;;;;;;24.56;53.60;100583.97;4951309;29;20490;-88
2023/08/28 00:19:16;;;;;;;0.20;0.20;;;;;;;24.61;53.55;100584.31;4935717;29;20043;-90
2023/08/28 00:21:42;;;;;;;0.10;0.10;;;;;;;24.59;53.70;100588.97;4950958;28;20028;-89
2023/08/28 00:24:07;;;;;;;0.10;0.10;;;;;;;24.50;53.23;100568.78;4951507;29;20023;-89
2023/08/28 00:26:33;;;;;;;0.10;0.10;;;;;;;24.51;53.60;100587.13;4951528;29;20067;-89
2023/08/28 00:28:58;;;;;;;0.10;0.10;;;;;;;24.47;53.83;100585.81;4951501;29;20031;-89
2023/08/28 00:31:24;;;;;;;0.10;0.10;;;;;;;24.55;53.42;100588.44;4951965;29;21104;-90
2023/08/28 00:33:49;;;;;;;0.10;0.10;;;;;;;24.54;53.51;100593.91;4935671;29;20034;-89
2023/08/28 00:36:15;;;;;;;0.20;0.20;;;;;;;24.58;53.22;100592.56;4935603;29;20042;-90
2023/08/28 00:38:40;;;;;;;0.10;0.10;;;;;;;24.61;53.11;100605.47;4935479;29;20035;-90
2023/08/28 00:41:06;;;;;;;0.10;0.10;;;;;;;24.40;53.91;100594.59;4951290;29;20063;-89
2023/08/28 00:43:32;;;;;;;0.10;0.10;;;;;;;24.46;53.62;100600.00;4951618;29;20485;-90
2023/08/28 00:45:57;;;;;;;0.10;0.10;;;;;;;24.38;53.61;100599.19;4935564;29;20509;-88
2023/08/28 00:48:23;;;;;;;0.10;0.10;;;;;;;24.38;53.48;100586.78;4951443;28;20026;-89
2023/08/28 00:50:48;;;;;;;0.10;0.10;;;;;;;24.33;54.04;100599.69;4951244;29;20042;-89
2023/08/28 00:53:14;;;;;;;0.20;0.20;;;;;;;24.24;53.69;100585.59;4951507;29;20027;-88
2023/08/28 00:55:40;;;;;;;0.10;0.10;;;;;;;24.33;53.44;100594.41;4951185;28;20023;-90
2023/08/28 00:58:06;;;;;;;0.20;0.20;;;;;;;24.26;53.43;100594.19;4950931;29;20030;-90
2023/08/28 01:00:31;;;;;;;0.10;0.10;;;;;;;24.30;53.47;100590.25;4935332;29;20035;-89
2023/08/28 01:02:57;;;;;;;0.10;0.10;;;;;;;24.31;52.89;100569.97;4935419;29;20493;-89
2023/08/28 01:05:24;;;;;;;0.10;0.10;;;;;;;24.25;53.46;100578.50;4935334;29;20031;-90
2023/08/28 01:08:00;;;;;;;0.10;0.10;;;;;;;24.30;53.69;100589.44;4935305;29;20027;-89
2023/08/28 01:10:37;;;;;;;0.20;0.20;;;;;;;24.25;53.58;100581.97;4935075;29;20037;-89
2023/08/28 01:13:06;;;;;;;0.15;0.15;;;;;;;24.17;55.33;100594.34;4935385;29;20038;-90
2023/08/28 01:15:31;;;;;;;0.10;0.10;;;;;;;24.07;56.37;100594.50;4935363;29;20102;-89
2023/08/28 01:18:02;;;;;;;0.10;0.10;;;;;;;23.79;56.20;100548.22;4951066;29;20051;-90
2023/08/28 01:20:29;;;;;;;0.10;0.10;;;;;;;23.83;57.04;100574.16;4951334;29;20095;-89
2023/08/28 01:23:11;;;;;;;0.10;0.10;;;;;;;23.95;56.22;100586.06;4951230;28;20035;-89
2023/08/28 01:25:36;;;;;;;0.10;0.10;;;;;;;23.79;56.88;100566.72;4950587;29;20027;-90
2023/08/28 01:28:02;;;;;;;0.10;0.10;;;;;;;23.77;57.25;100584.53;4950894;29;20046;-89
2023/08/28 01:30:28;;;;;;;0.10;0.10;;;;;;;23.75;56.94;100579.44;4935115;29;20031;-90
2023/08/28 01:32:53;;;;;;;0.10;0.10;;;;;;;23.84;56.97;100589.03;4935702;29;20035;-90
2023/08/28 01:35:24;;;;;;;0.10;0.10;;;;;;;23.81;56.82;100583.25;4954944;29;20028;-89
2023/08/28 01:38:05;;;;;;;0.10;0.10;;;;;;;23.74;57.39;100591.81;4938533;29;20126;-89
2023/08/28 01:40:36;;;;;;;0.10;0.10;;;;;;;23.82;56.75;100595.47;4954537;29;20477;-90
2023/08/28 01:43:02;;;;;;;0.10;0.10;;;;;;;23.67;57.08;100588.16;4938482;29;20511;-89
2023/08/28 01:45:28;;;;;;;0.10;0.10;;;;;;;23.54;57.22;100581.66;4938543;29;20112;-89
2023/08/28 01:47:53;;;;;;;0.10;0.10;;;;;;;23.50;57.67;100581.16;4954449;29;20481;-89
2023/08/28 01:50:19;;;;;;;0.10;0.10;;;;;;;23.51;57.78;100600.47;4938531;29;20027;-88
2023/08/28 01:52:44;;;;;;;0.10;0.10;;;;;;;23.49;56.90;100584.75;4954325;29;20058;-89
2023/08/28 01:55:10;;;;;;;0.10;0.10;;;;;;;23.64;56.32;100599.03;4938315;29;20035;-91
2023/08/28 01:57:35;;;;;;;0.10;0.10;;;;;;;23.62;56.33;100601.03;4938306;29;20035;-89
2023/08/28 02:00:01;;;;;;;0.10;0.10;;;;;;;23.33;56.75;100579.44;4938224;29;20513;-89
2023/08/28 02:02:26;;;;;;;0.10;0.10;;;;;;;23.38;57.31;100593.78;4938279;29;20074;-90
2023/08/28 02:04:52;;;;;;;0.10;0.10;;;;;;;23.34;57.06;100589.00;4953975;29;20035;-89
2023/08/28 02:07:17;;;;;;;0.10;0.10;;;;;;;23.30;57.18;100595.56;4953580;29;20046;-90
2023/08/28 02:09:43;;;;;;;0.10;0.10;;;;;;;23.29;57.29;100596.53;4938106;29;20031;-90
2023/08/28 02:12:08;;;;;;;0.10;0.10;;;;;;;23.18;57.43;100593.19;4937875;29;20553;-90
2023/08/28 02:14:34;;;;;;;0.10;0.10;;;;;;;23.02;57.42;100577.31;4938029;29;20034;-90
2023/08/28 02:16:59;;;;;;;0.10;0.10;;;;;;;22.97;58.55;100589.28;4937767;29;20043;-89
2023/08/28 02:19:25;;;;;;;0.10;0.10;;;;;;;22.95;58.91;100586.00;4953592;29;20031;-90
2023/08/28 02:21:50;;;;;;;0.10;0.10;;;;;;;22.96;58.96;100587.63;4953624;29;20422;-90
2023/08/28 02:24:16;;;;;;;0.10;0.10;;;;;;;22.87;58.95;100577.03;4953829;29;20508;-88
2023/08/28 02:26:41;;;;;;;0.10;0.10;;;;;;;22.97;58.97;100592.75;4953875;29;20027;-89
2023/08/28 02:29:07;;;;;;;0.10;0.10;;;;;;;22.96;58.59;100585.81;4937703;29;20035;-89
2023/08/28 02:31:32;;;;;;;0.10;0.10;;;;;;;22.84;59.08;100584.44;4937735;29;20095;-89
2023/08/28 02:33:57;;;;;;;0.10;0.10;;;;;;;22.79;59.38;100586.66;4937677;29;20500;-89
2023/08/28 02:36:23;;;;;;;0.10;0.10;;;;;;;22.73;59.62;100587.31;4953321;29;20526;-88
2023/08/28 02:38:48;;;;;;;0.10;0.10;;;;;;;22.83;59.07;100593.31;4937489;29;20035;-90
2023/08/28 02:41:14;;;;;;;0.10;0.10;;;;;;;22.79;59.64;100591.94;4937585;29;20042;-89
2023/08/28 02:43:39;;;;;;;0.10;0.10;;;;;;;22.78;59.01;100600.84;4953368;29;20031;-89
2023/08/28 02:46:05;;;;;;;0.10;0.10;;;;;;;22.65;60.00;100595.97;4936534;29;20035;-88
2023/08/28 02:48:30;;;;;;;0.10;0.10;;;;;;;22.85;59.42;100602.75;4937493;29;20023;-89
2023/08/28 02:50:56;;;;;;;0.10;0.10;;;;;;;22.99;58.46;100603.16;4936874;29;20031;-90
2023/08/28 02:53:21;;;;;;;0.10;0.10;;;;;;;22.94;57.82;100601.00;4953686;29;20038;-91
2023/08/28 02:56:20;;;;;;;0.10;0.10;;;;;;;22.97;57.93;100611.22;4937420;29;20058;-89
2023/08/28 02:58:46;;;;;;;0.10;0.10;;;;;;;22.95;57.86;100610.56;4952944;29;20046;-90
2023/08/28 03:01:11;;;;;;;0.10;0.10;;;;;;;23.02;60.04;100613.41;4953438;29;20023;-90
2023/08/28 03:03:37;;;;;;;0.10;0.10;;;;;;;23.25;58.07;100603.13;4953696;29;20082;-93
2023/08/28 03:06:02;;;;;;;0.10;0.10;;;;;;;23.25;57.30;100603.13;4953569;29;20054;-92
2023/08/28 03:08:31;;;;;;;0.10;0.10;;;;;;;23.03;57.55;100578.94;4937669;29;20039;-92
2023/08/28 03:10:56;;;;;;;0.10;0.10;;;;;;;23.01;59.02;100607.31;4953738;29;20027;-91
2023/08/28 03:13:21;;;;;;;0.10;0.10;;;;;;;23.25;57.45;100605.78;4953249;29;20043;-91
2023/08/28 03:15:47;;;;;;;0.10;0.10;;;;;;;23.34;57.76;100608.31;4937455;29;20038;-91
2023/08/28 03:18:12;;;;;;;0.10;0.10;;;;;;;23.52;56.70;100610.03;4953353;29;20058;-92
2023/08/28 03:20:38;;;;;;;0.10;0.10;;;;;;;23.58;56.84;100607.56;4936979;29;20508;-91
2023/08/28 03:23:03;;;;;;;0.10;0.10;;;;;;;23.65;56.68;100603.34;4937108;29;20421;-92
2023/08/28 03:25:29;;;;;;;0.10;0.10;;;;;;;23.66;55.77;100596.22;4953401;29;20043;-91
2023/08/28 03:27:54;;;;;;;0.10;0.10;;;;;;;23.77;56.33;100608.31;4937248;29;20039;-91
2023/08/28 03:30:20;;;;;;;0.10;0.10;;;;;;;23.74;55.86;100594.44;4937063;29;20035;-92
2023/08/28 03:32:45;;;;;;;0.10;0.10;;;;;;;23.45;56.24;100586.06;4952950;29;20044;-91
2023/08/28 03:35:10;;;;;;;0.20;0.20;;;;;;;23.47;56.75;100592.00;4937065;29;20023;-91
2023/08/28 03:37:36;;;;;;;0.20;0.20;;;;;;;23.53;56.44;100599.31;4937099;29;20035;-91
2023/08/28 03:40:03;;;;;;;0.30;0.20;;;;;;;23.54;56.31;100598.31;4937144;29;20031;-91
2023/08/28 03:42:29;;;;;;;0.10;0.10;;;;;;;23.72;55.61;100596.44;4953169;28;20086;-91
2023/08/28 03:44:54;;;;;;;0.10;0.10;;;;;;;23.59;55.09;100601.31;4937096;29;20035;-91
2023/08/28 03:47:20;;;;;;;0.10;0.10;;;;;;;23.53;55.69;100607.22;4936627;29;20031;-93
2023/08/28 03:49:46;;;;;;;0.10;0.10;;;;;;;23.38;55.57;100609.63;4942280;28;20059;-91
2023/08/28 03:52:11;;;;;;;0.20;0.20;;;;;;;23.18;55.93;100608.22;4955825;28;20476;-91
2023/08/28 03:54:37;;;;;;;0.10;0.10;;;;;;;23.30;56.22;100616.66;4939625;28;20035;-89
2023/08/28 03:57:02;;;;;;;0.20;0.20;;;;;;;23.42;55.90;100616.25;4955057;28;20531;-89
2023/08/28 03:59:28;;;;;;;0.10;0.10;;;;;;;23.32;56.27;100617.38;4955079;28;20117;-91
2023/08/28 04:01:54;;;;;;;0.10;0.10;;;;;;;23.78;54.61;100604.69;4939121;28;20421;-90
2023/08/28 04:04:19;;;;;;;0.13;0.13;;;;;;;23.80;54.70;100626.50;4954912;28;20030;-89
2023/08/28 04:06:46;;;;;;;0.15;0.15;;;;;;;23.66;55.04;100623.47;4939233;28;20381;-90
2023/08/28 04:09:12;;;;;;;0.10;0.10;;;;;;;23.55;55.67;100620.25;4939266;28;20037;-89
2023/08/28 04:11:38;;;;;;;0.10;0.10;;;;;;;23.61;55.86;100633.69;4955072;28;20062;-90
2023/08/28 04:14:03;;;;;;;0.20;0.20;;;;;;;23.41;55.96;100629.63;4938657;28;20399;-90
2023/08/28 04:16:29;;;;;;;0.15;0.15;;;;;;;23.56;56.59;100630.66;4954848;28;20089;-86
2023/08/28 04:18:54;;;;;;;0.10;0.10;;;;;;;23.61;56.24;100615.22;4970018;28;20557;-87
2023/08/28 04:21:20;;;;;;;0.10;0.10;;;;;;;23.68;56.01;100632.06;4969615;28;20065;-93
2023/08/28 04:23:45;;;;;;;0.13;0.13;;;;;;;24.10;55.36;100627.72;4957257;28;20038;-90
2023/08/28 04:26:11;;;;;;;0.10;0.10;;;;;;;24.11;54.00;100627.56;4963144;28;20544;-89
2023/08/28 04:28:36;;;;;;;0.20;0.20;;;;;;;24.17;53.71;100616.31;4954681;28;20035;-89
2023/08/28 04:31:02;;;;;;;0.10;0.10;;;;;;;24.15;53.59;100639.44;4975083;28;20438;-89
2023/08/28 04:33:29;;;;;;;0.10;0.10;;;;;;;24.04;54.09;100645.06;4954814;28;20077;-93
2023/08/28 04:35:54;;;;;;;0.10;0.10;;;;;;;24.19;53.53;100645.25;4973043;28;20042;-93
2023/08/28 04:38:19;;;;;;;0.20;0.20;;;;;;;24.27;54.38;100638.13;4955219;28;20031;-91
2023/08/28 04:40:45;;;;;;;0.10;0.10;;;;;;;24.28;52.81;100637.16;4955487;28;20085;-90
2023/08/28 04:43:10;;;;;;;0.10;0.10;;;;;;;24.60;54.47;100638.22;4971163;28;20074;-93
2023/08/28 04:45:36;;;;;;;0.10;0.10;;;;;;;24.64;52.04;100639.53;4951776;29;20065;-88
2023/08/28 04:48:01;;;;;;;0.10;0.10;;;;;;;24.74;53.45;100645.47;4971700;28;20035;-93
2023/08/28 04:50:27;;;;;;;0.17;0.17;;;;;;;24.50;52.13;100621.69;4937445;28;20043;-90
2023/08/28 04:52:52;;;;;;;0.10;0.10;;;;;;;23.78;54.25;100652.22;4971184;28;20030;-93
2023/08/28 04:55:18;;;;;;;0.20;0.20;;;;;;;23.55;54.65;100631.66;4954192;28;20026;-93
2023/08/28 04:57:43;;;;;;;0.10;0.10;;;;;;;23.48;55.40;100646.47;4962109;28;20519;-93
2023/08/28 05:00:09;;;;;;;0.10;0.10;;;;;;;23.37;55.40;100644.94;4953211;28;20413;-93
2023/08/28 05:02:34;;;;;;;0.20;0.20;;;;;;;23.36;55.18;100653.00;4971068;28;20047;-88
2023/08/28 05:05:00;;;;;;;0.10;0.10;;;;;;;23.34;54.95;100649.72;4972279;28;20054;-92
2023/08/28 05:07:25;;;;;;;0.10;0.10;;;;;;;23.42;55.18;100649.75;4965714;28;20030;-93
2023/08/28 05:09:51;;;;;;;0.20;0.20;;;;;;;23.41;57.03;100658.66;4952492;28;20022;-93
2023/08/28 05:12:16;;;;;;;0.10;0.10;;;;;;;23.66;55.67;100655.16;4950944;28;20031;-88
2023/08/28 05:14:42;;;;;;;0.20;0.20;;;;;;;23.66;54.61;100652.53;4958387;28;20524;-90
2023/08/28 05:17:07;;;;;;;0.10;0.10;;;;;;;23.86;54.83;100660.19;4961154;28;20621;-92
2023/08/28 05:19:32;;;;;;;0.20;0.20;;;;;;;23.88;56.35;100653.75;4963283;28;20058;-92
2023/08/28 05:21:58;;;;;;;0.10;0.10;;;;;;;23.84;56.43;100641.03;4972828;28;20034;-91
2023/08/28 05:24:23;;;;;;;0.10;0.10;;;;;;;24.11;55.97;100646.06;4961987;28;20061;-87
2023/08/28 05:26:49;;;;;;;0.10;0.10;;;;;;;24.16;55.40;100646.38;4961086;28;20030;-92
2023/08/28 05:29:15;;;;;;;0.20;0.20;;;;;;;24.50;54.64;100643.66;4945731;28;20030;-91
2023/08/28 05:31:43;;;;;;;0.10;0.10;;;;;;;24.30;54.08;100642.31;4957476;28;20023;-93
2023/08/28 05:34:09;;;;;;;0.10;0.10;;;;;;;24.16;54.27;100651.69;4943095;28;20465;-91
2023/08/28 05:36:34;;;;;;;0.10;0.10;;;;;;;24.25;55.56;100658.63;4958477;28;20027;-92
2023/08/28 05:39:00;;;;;;;0.10;0.10;;;;;;;24.17;54.51;100650.69;4958994;28;20027;-90
2023/08/28 05:41:25;;;;;;;0.10;0.10;;;;;;;24.37;55.56;100672.38;4962017;28;20134;-87
2023/08/28 05:43:50;;;;;;;0.20;0.20;;;;;;;24.79;53.27;100666.16;4974844;28;20023;-88
2023/08/28 05:46:16;;;;;;;0.20;0.20;;;;;;;24.65;53.85;100667.63;4958289;28;20089;-91
2023/08/28 05:48:41;;;;;;;0.10;0.10;;;;;;;24.72;54.01;100673.09;4959579;28;20038;-89
2023/08/28 05:51:07;;;;;;;0.10;0.10;;;;;;;24.64;54.66;100665.97;4947551;28;20047;-92
2023/08/28 05:53:35;;;;;;;0.20;0.20;;;;;;;24.69;53.56;100673.44;4947454;28;20030;-90
2023/08/28 05:56:00;;;;;;;0.10;0.10;;;;;;;24.84;54.68;100679.69;4926973;28;20089;-87
2023/08/28 05:58:26;;;;;;;0.17;0.17;;;;;;;25.24;54.01;100689.44;4952651;28;20035;-90
2023/08/28 06:00:51;;;;;;;0.10;0.10;;;;;;;25.37;53.00;100679.16;4974296;28;20031;-89
2023/08/28 06:03:17;;;;;;;0.10;0.10;;;;;;;25.46;52.18;100682.59;4959267;28;20377;-92
2023/08/28 06:05:42;;;;;;;0.10;0.10;;;;;;;25.39;51.63;100681.63;4945779;28;20030;-87
2023/08/28 06:08:08;;;;;;;0.10;0.10;;;;;;;25.27;50.62;100689.13;4981787;28;20054;-91
2023/08/28 06:10:38;;;;;;;0.10;0.10;;;;;;;25.34;52.07;100684.78;4975579;28;20481;-89
2023/08/28 06:13:04;;;;;;;0.10;0.10;;;;;;;25.58;52.53;100691.84;4966536;28;20125;-90
2023/08/28 06:15:29;;;;;;;0.15;0.15;;;;;;;25.67;49.75;100680.22;4962404;28;20030;-91
2023/08/28 06:17:55;;;;;;;0.20;0.20;;;;;;;25.58;52.42;100667.19;4956101;28;20432;-89
2023/08/28 06:20:22;;;;;;;0.10;0.10;;;;;;;25.92;51.65;100683.59;4972186;28;20035;-89
2023/08/28 06:22:47;;;;;;;0.10;0.10;;;;;;;26.15;51.04;100693.41;4957620;28;20035;-91
2023/08/28 06:25:13;;;;;;;0.20;0.20;;;;;;;26.36;49.31;100696.28;4965942;28;20033;-91
2023/08/28 06:27:38;;;;;;;0.10;0.10;;;;;;;26.21;47.78;100692.72;4958795;28;20061;-89
2023/08/28 06:30:05;;;;;;;0.10;0.10;;;;;;;25.97;49.39;100675.97;4956945;28;20043;-91
2023/08/28 06:32:31;;;;;;;0.20;0.20;;;;;;;26.10;48.98;100679.88;4948867;28;20481;-92
2023/08/28 06:34:57;;;;;;;0.10;0.10;;;;;;;26.07;50.74;100664.31;4944296;28;20038;-93
2023/08/28 06:37:24;;;;;;;0.10;0.10;;;;;;;26.16;47.79;100666.75;4959583;28;20058;-91
2023/08/28 06:39:49;;;;;;;0.10;0.10;;;;;;;26.25;48.91;100673.66;4951032;28;20042;-90
2023/08/28 06:42:15;;;;;;;0.20;0.20;;;;;;;26.34;47.56;100684.19;4957130;28;20023;-89
2023/08/28 06:44:40;;;;;;;0.10;0.10;;;;;;;26.34;47.35;100682.34;4941750;29;20101;-91
2023/08/28 06:47:09;;;;;;;0.20;0.20;;;;;;;26.36;49.14;100684.84;4957424;28;20030;-94
2023/08/28 06:49:34;;;;;;;0.17;0.17;;;;;;;26.57;47.13;100671.78;4958260;28;20097;-89
2023/08/28 06:52:00;;;;;;;0.10;0.10;;;;;;;26.66;49.08;100677.88;4956275;28;20058;-90
2023/08/28 06:54:25;;;;;;;0.10;0.10;;;;;;;26.79;49.07;100678.06;4964177;28;20030;-92
2023/08/28 06:56:51;;;;;;;0.10;0.10;;;;;;;26.80;49.52;100682.38;4942784;28;20514;-88
2023/08/28 06:59:17;;;;;;;0.10;0.10;;;;;;;26.83;47.32;100684.66;4960167;28;20424;-88
2023/08/28 07:01:43;;;;;;;0.20;0.20;;;;;;;26.87;48.43;100688.63;4958643;28;20517;-91
2023/08/28 07:04:08;;;;;;;0.17;0.17;;;;;;;26.94;49.52;100667.47;4956028;28;20023;-92
2023/08/28 07:06:34;;;;;;;0.20;0.20;;;;;;;27.16;46.68;100687.88;4965946;28;20118;-92
2023/08/28 07:08:59;;;;;;;0.20;0.20;;;;;;;27.10;45.80;100689.44;4957490;28;20034;-90
2023/08/28 07:11:25;;;;;;;0.10;0.10;;;;;;;27.04;46.15;100684.00;4968047;28;20030;-90
2023/08/28 07:13:50;;;;;;;0.10;0.10;;;;;;;27.13;48.03;100705.00;4975571;28;20042;-92
2023/08/28 07:16:16;;;;;;;0.20;0.20;;;;;;;27.21;46.27;100693.47;4943269;28;20038;-94
2023/08/28 07:18:43;;;;;;;0.20;0.20;;;;;;;27.29;43.91;100693.38;4956191;28;20051;-91
2023/08/28 07:21:09;;;;;;;0.10;0.10;;;;;;;27.28;44.90;100688.25;4974996;28;20027;-92
2023/08/28 07:23:36;;;;;;;0.10;0.10;;;;;;;27.39;46.06;100685.97;4962167;28;20169;-90
2023/08/28 07:26:02;;;;;;;0.20;0.20;;;;;;;27.50;46.26;100674.06;4963228;28;20507;-92
2023/08/28 07:28:28;;;;;;;0.20;0.20;;;;;;;27.70;47.06;100680.47;4957452;28;20022;-85
2023/08/28 07:31:02;;;;;;;0.20;0.20;;;;;;;27.61;43.49;100644.34;4965011;28;20516;-90
2023/08/28 07:33:27;;;;;;;0.20;0.20;;;;;;;27.78;43.76;100673.44;4958814;28;20448;-93
2023/08/28 07:35:53;;;;;;;0.20;0.20;;;;;;;27.90;43.47;100687.88;4953019;28;20117;-92
2023/08/28 07:38:18;;;;;;;0.20;0.20;;;;;;;27.85;43.23;100682.31;4965874;28;20035;-93
2023/08/28 07:40:46;;;;;;;0.20;0.20;;;;;;;27.93;42.70;100682.22;4970391;28;20441;-89
2023/08/28 07:43:12;;;;;;;0.20;0.20;;;;;;;28.07;43.92;100675.19;4964578;28;20587;-91
2023/08/28 07:45:37;;;;;;;0.20;0.20;;;;;;;28.05;42.82;100672.72;4959661;28;20035;-90
2023/08/28 07:48:03;;;;;;;0.20;0.20;;;;;;;28.21;42.26;100672.47;4953983;28;20054;-90
2023/08/28 07:50:29;;;;;;;0.20;0.20;;;;;;;28.27;42.65;100670.91;4965231;28;20019;-91
2023/08/28 07:52:54;;;;;;;0.20;0.20;;;;;;;28.35;41.18;100675.31;4973989;28;20053;-92
2023/08/28 07:55:20;;;;;;;0.20;0.20;;;;;;;28.47;41.25;100666.63;4961947;28;20030;-92
2023/08/28 07:57:46;;;;;;;0.10;0.10;;;;;;;28.64;42.09;100672.53;4957674;28;20357;-91
2023/08/28 08:00:13;;;;;;;0.20;0.20;;;;;;;28.75;41.04;100656.03;4957533;28;20106;-91
2023/08/28 08:02:40;;;;;;;0.20;0.20;;;;;;;28.89;39.81;100669.47;4978873;28;20115;-92
2023/08/28 08:05:07;;;;;;;0.13;0.13;;;;;;;29.12;42.83;100675.38;4962994;28;20090;-93
2023/08/28 08:07:32;;;;;;;0.20;0.20;;;;;;;29.17;39.99;100672.94;4950875;28;20038;-93
2023/08/28 08:09:59;;;;;;;0.10;0.10;;;;;;;29.23;40.31;100660.69;4940447;28;20054;-92
2023/08/28 08:12:26;;;;;;;0.20;0.20;;;;;;;29.28;39.49;100650.25;4942263;28;20038;-92
2023/08/28 08:14:52;;;;;;;0.20;0.20;;;;;;;29.55;39.34;100675.22;4969963;28;20066;-91
2023/08/28 08:17:19;;;;;;;0.20;0.20;;;;;;;29.70;41.03;100674.09;4982793;28;20129;-92
2023/08/28 08:19:45;;;;;;;0.20;0.20;;;;;;;29.53;39.46;100663.97;4957225;28;20039;-93
2023/08/28 08:22:11;;;;;;;0.20;0.20;;;;;;;29.26;39.98;100657.63;4957920;28;20037;-93
2023/08/28 08:24:37;;;;;;;0.20;0.20;;;;;;;29.29;39.71;100643.91;4958011;28;20031;-92
2023/08/28 08:27:03;;;;;;;0.20;0.20;;;;;;;29.36;39.44;100648.25;4953064;28;20497;-94
2023/08/28 08:29:29;;;;;;;0.20;0.20;;;;;;;29.42;38.76;100639.47;4960596;28;20022;-91
2023/08/28 08:31:54;;;;;;;0.20;0.20;;;;;;;29.37;39.48;100636.56;4977259;28;20042;-89
2023/08/28 08:34:20;;;;;;;0.20;0.20;;;;;;;29.42;39.54;100638.66;4971700;28;20042;-90
2023/08/28 08:36:45;;;;;;;0.20;0.20;;;;;;;29.39;40.54;100634.53;4955226;28;20033;-90
2023/08/28 08:39:10;;;;;;;0.20;0.20;;;;;;;29.53;39.55;100634.63;4954011;28;20500;-92
2023/08/28 08:41:38;;;;;;;0.20;0.20;;;;;;;29.73;38.77;100640.88;4953522;28;20048;-92
2023/08/28 08:44:03;;;;;;;0.20;0.20;;;;;;;29.81;38.73;100618.53;4960979;28;20023;-93
2023/08/28 08:46:29;;;;;;;0.20;0.20;;;;;;;29.85;38.71;100601.94;4958160;28;20448;-89
2023/08/28 08:48:54;;;;;;;0.20;0.20;;;;;;;30.04;38.16;100621.66;4974575;28;20039;-89
2023/08/28 08:51:20;;;;;;;0.20;0.20;;;;;;;30.12;38.32;100626.84;4957081;28;20037;-89
2023/08/28 08:53:52;;;;;;;0.20;0.20;;;;;;;30.13;38.48;100609.00;4951911;28;20574;-90
2023/08/28 08:56:18;;;;;;;0.20;0.20;;;;;;;30.27;37.45;100614.13;4958143;28;20053;-90
2023/08/28 08:58:43;;;;;;;0.20;0.20;;;;;;;30.36;37.58;100609.41;4976464;28;20469;-87
2023/08/28 09:01:09;;;;;;;0.20;0.20;;;;;;;30.85;37.18;100605.50;4990083;28;20121;-93
2023/08/28 09:03:35;;;;;;;0.20;0.20;;;;;;;30.75;37.45;100586.41;4965657;28;20031;-89
2023/08/28 09:06:01;;;;;;;0.20;0.20;;;;;;;30.97;36.30;100606.50;4953125;28;20189;-91
2023/08/28 09:08:28;;;;;;;0.20;0.20;;;;;;;30.96;35.68;100588.84;4958350;28;20054;-91
2023/08/28 09:10:57;;;;;;;0.20;0.20;;;;;;;31.34;36.50;100593.47;4961193;28;20045;-94
2023/08/28 09:13:22;;;;;;;0.20;0.20;;;;;;;31.46;35.79;100586.44;4968844;28;20093;-92
2023/08/28 09:15:48;;;;;;;0.20;0.20;;;;;;;31.59;35.28;100597.09;4979028;28;20030;-87
2023/08/28 09:18:13;;;;;;;0.20;0.20;;;;;;;31.63;34.90;100574.22;4967011;28;20054;-89
2023/08/28 09:20:39;;;;;;;0.22;0.22;;;;;;;31.88;35.03;100582.34;4984807;28;20034;-91
2023/08/28 09:23:04;;;;;;;0.20;0.20;;;;;;;32.15;34.13;100585.66;4964244;28;20489;-90
2023/08/28 09:25:30;;;;;;;0.20;0.20;;;;;;;32.21;33.62;100559.88;4943660;28;20023;-91
2023/08/28 09:27:56;;;;;;;0.20;0.20;;;;;;;32.41;33.83;100578.47;4963784;28;20559;-92
2023/08/28 09:30:29;;;;;;;0.20;0.20;;;;;;;32.52;33.25;100572.38;4954075;28;20509;-92
2023/08/28 09:32:59;;;;;;;0.20;0.20;;;;;;;32.85;32.62;100576.66;4978272;28;20023;-91
2023/08/28 09:35:28;;;;;;;0.20;0.20;;;;;;;32.85;32.94;100566.75;4956028;28;20081;-88
2023/08/28 09:37:59;;;;;;;0.20;0.20;;;;;;;33.09;31.90;100551.63;4971113;28;20030;-94
2023/08/28 09:40:25;;;;;;;;;;;;;;;33.41;31.41;100562.19;4956013;28;20034;-93
2023/08/28 09:42:51;;;;;;;0.20;0.20;;;;;;;33.26;31.48;100531.22;4953951;28;19973;-91
2023/08/28 09:45:16;;;;;;;0.20;0.20;;;;;;;33.72;30.64;100545.03;4969291;28;20043;-93
2023/08/28 09:47:42;;;;;;;0.20;0.20;;;;;;;33.69;30.66;100524.84;4953917;28;20033;-86
2023/08/28 09:50:08;;;;;;;0.20;0.20;;;;;;;33.90;30.79;100545.81;4962613;28;20073;-92
2023/08/28 09:52:33;;;;;;;0.25;0.25;;;;;;;34.09;30.09;100519.69;4928878;28;20508;-91
2023/08/28 09:55:05;;;;;;;0.20;0.20;;;;;;;34.07;29.63;100510.25;4956668;28;20046;-87
2023/08/28 09:57:31;;;;;;;0.20;0.20;;;;;;;34.44;29.65;100535.06;4958274;28;20051;-88
2023/08/28 09:59:59;;;;;;;0.20;0.20;;;;;;;34.60;29.49;100528.13;4958130;28;20578;-94
2023/08/28 10:02:25;;;;;;;0.20;0.20;;;;;;;34.42;29.45;100524.53;4945619;28;20075;-90
2023/08/28 10:04:52;;;;;;;0.20;0.20;;;;;;;34.55;29.42;100506.53;4976142;28;20059;-86
2023/08/28 10:07:18;;;;;;;0.25;0.25;;;;;;;34.64;29.35;100516.69;4963261;28;20030;-89
2023/08/28 10:09:43;;;;;;;0.30;0.30;;;;;;;34.79;29.27;100513.50;4957768;28;20035;-88
2023/08/28 10:12:11;;;;;;;0.20;0.20;;;;;;;35.03;29.52;100493.59;4942127;28;20038;-88
2023/08/28 10:14:36;;;;;;;0.20;0.20;;;;;;;34.94;28.90;100473.53;4958462;28;20043;-90
2023/08/28 10:17:05;;;;;;;0.30;0.30;;;;;;;35.08;29.38;100484.81;4971087;28;20039;-92
2023/08/28 10:19:36;;;;;;;0.30;0.30;;;;;;;35.29;28.97;100491.38;4932267;28;20034;-94
2023/08/28 10:22:03;;;;;;;0.30;0.30;;;;;;;35.25;28.81;100479.50;4976399;28;20078;-86
2023/08/28 10:24:30;;;;;;;0.30;0.30;;;;;;;35.51;28.75;100468.16;4954854;28;20031;-85
2023/08/28 10:26:55;;;;;;;0.28;0.28;;;;;;;35.59;28.88;100473.13;4956513;28;20066;-86
2023/08/28 10:29:21;;;;;;;0.30;0.30;;;;;;;35.64;28.33;100454.38;4955313;28;20034;-90
2023/08/28 10:31:46;;;;;;;0.25;0.25;;;;;;;35.82;28.47;100458.72;4955301;28;20142;-90
2023/08/28 10:34:12;;;;;;;0.30;0.30;;;;;;;35.99;28.60;100447.97;4952248;28;20090;-90
2023/08/28 10:36:38;;;;;;;0.30;0.30;;;;;;;36.30;27.68;100448.38;4967105;28;20038;-93
2023/08/28 10:39:04;;;;;;;0.20;0.20;;;;;;;36.59;26.81;100441.78;4958967;28;20038;-86
2023/08/28 10:41:30;;;;;;;0.20;0.20;;;;;;;36.44;26.20;100423.53;4974161;28;20019;-88
2023/08/28 10:43:56;;;;;;;0.30;0.30;;;;;;;36.61;25.78;100436.97;4971451;28;20045;-83
2023/08/28 10:46:22;;;;;;;0.30;0.30;;;;;;;36.53;26.04;100426.63;4949439;28;20458;-87
2023/08/28 10:48:47;;;;;;;0.30;0.30;;;;;;;36.44;26.46;100422.72;4942510;28;20030;-90
2023/08/28 10:51:13;;;;;;;0.30;0.30;;;;;;;36.64;26.22;100422.97;4955694;28;20437;-88
2023/08/28 10:53:39;;;;;;;0.30;0.30;;;;;;;36.82;25.69;100421.03;4945116;28;20203;-86
2023/08/28 10:56:05;;;;;;;0.30;0.30;;;;;;;36.97;25.52;100410.41;4955358;28;20046;-85
2023/08/28 10:58:31;;;;;;;0.30;0.30;;;;;;;37.37;24.81;100409.22;4955675;28;20054;-91
2023/08/28 11:01:16;;;;;;;0.30;0.30;;;;;;;37.40;24.21;100408.69;4952218;28;20035;-86
2023/08/28 11:03:50;;;;;;;0.30;0.30;;;;;;;37.35;24.25;100400.53;4954636;28;20026;-86
2023/08/28 11:06:45;;;;;;;0.30;0.30;;;;;;;37.48;24.81;100400.13;4971027;28;20034;-93
2023/08/28 11:09:28;;;;;;;0.30;0.30;;;;;;;37.43;24.38;100395.50;4989028;28;20122;-90
2023/08/28 11:12:00;;;;;;;0.25;0.25;;;;;;;37.54;23.82;100393.69;4976232;28;20411;-94
2023/08/28 11:14:25;;;;;;;0.28;0.28;;;;;;;37.51;23.15;100388.81;4972520;28;20031;-86
2023/08/28 11:17:15;;;;;;;0.20;0.20;;;;;;;37.35;22.93;100377.06;4971334;28;20042;-85
2023/08/28 11:19:56;;;;;;;0.30;0.30;;;;;;;37.65;22.42;100372.97;4972263;28;20138;-94
2023/08/28 11:22:36;;;;;;;0.30;0.30;;;;;;;37.49;22.63;100366.66;4971732;28;20026;-90